Cubelles, Spain
Current Conditions -  °F | °C
As of 8:30 PM on Friday 24 Oct 2014 (Local Time) from LEBL Reporting Station
Clear Clear  
Wind Chill: 66°   Ceiling: Unl
Heat Index: 66°   Visibility: 6mi
Dew Point: 57°   Wind: 2mph
Humidity: 73%   Direction: NA
Pressure: 30"   Gusts: NA
Location:  41.21°N, 1.67°E
Report Text: LEBL 241830Z VRB02KT CAVOK 19/14 Q1016 NOSIG
Loading
Personal Weather Stations






























Interactive Weather Map
Tropical Storm Tracking
New forecast layout! Learn more

10-Day Weather Forecast

Advertisements
Track Severe Weather on mobile